sensor_id;sensor_type;location;lat;lon;timestamp;P1;durP1;ratioP1;P2;durP2;ratioP2
6860;SDS011;3469;47.060;15.460;2022-12-18T00:00:07;28.95;;;16.05;;
6860;SDS011;3469;47.060;15.460;2022-12-18T00:02:45;31.05;;;18.25;;
6860;SDS011;3469;47.060;15.460;2022-12-18T00:05:13;36.08;;;17.85;;
6860;SDS011;3469;47.060;15.460;2022-12-18T00:07:42;32.63;;;16.75;;
6860;SDS011;3469;47.060;15.460;2022-12-18T00:10:10;32.20;;;18.92;;
6860;SDS011;3469;47.060;15.460;2022-12-18T00:12:41;31.80;;;15.93;;
6860;SDS011;3469;47.060;15.460;2022-12-18T00:15:09;27.88;;;15.15;;
6860;SDS011;3469;47.060;15.460;2022-12-18T00:17:37;31.02;;;17.85;;
6860;SDS011;3469;47.060;15.460;2022-12-18T00:20:08;39.63;;;18.98;;
6860;SDS011;3469;47.060;15.460;2022-12-18T00:22:37;31.17;;;17.35;;
6860;SDS011;3469;47.060;15.460;2022-12-18T00:25:05;32.63;;;18.02;;
6860;SDS011;3469;47.060;15.460;2022-12-18T00:27:34;32.55;;;17.58;;
6860;SDS011;3469;47.060;15.460;2022-12-18T00:30:02;35.47;;;16.77;;
6860;SDS011;3469;47.060;15.460;2022-12-18T00:32:32;30.70;;;17.23;;
6860;SDS011;3469;47.060;15.460;2022-12-18T00:35:01;35.60;;;17.88;;
6860;SDS011;3469;47.060;15.460;2022-12-18T00:37:31;33.25;;;15.60;;
6860;SDS011;3469;47.060;15.460;2022-12-18T00:40:01;31.83;;;16.15;;
6860;SDS011;3469;47.060;15.460;2022-12-18T00:42:29;28.20;;;16.60;;
6860;SDS011;3469;47.060;15.460;2022-12-18T00:45:15;29.08;;;16.02;;
6860;SDS011;3469;47.060;15.460;2022-12-18T00:47:45;25.02;;;14.90;;
6860;SDS011;3469;47.060;15.460;2022-12-18T00:50:13;28.15;;;13.63;;
6860;SDS011;3469;47.060;15.460;2022-12-18T00:52:43;29.00;;;15.30;;
6860;SDS011;3469;47.060;15.460;2022-12-18T00:55:12;21.38;;;11.20;;
6860;SDS011;3469;47.060;15.460;2022-12-18T00:57:40;21.00;;;12.95;;
6860;SDS011;3469;47.060;15.460;2022-12-18T01:00:10;33.28;;;13.00;;
6860;SDS011;3469;47.060;15.460;2022-12-18T01:02:40;23.15;;;14.63;;
6860;SDS011;3469;47.060;15.460;2022-12-18T01:05:10;25.88;;;15.10;;
6860;SDS011;3469;47.060;15.460;2022-12-18T01:07:40;30.20;;;16.02;;
6860;SDS011;3469;47.060;15.460;2022-12-18T01:10:11;26.85;;;13.88;;
6860;SDS011;3469;47.060;15.460;2022-12-18T01:12:42;23.10;;;12.77;;
6860;SDS011;3469;47.060;15.460;2022-12-18T01:15:11;29.48;;;15.07;;
6860;SDS011;3469;47.060;15.460;2022-12-18T01:17:40;13.48;;;9.25;;
6860;SDS011;3469;47.060;15.460;2022-12-18T01:20:09;29.77;;;16.00;;
6860;SDS011;3469;47.060;15.460;2022-12-18T01:22:39;25.38;;;14.55;;
6860;SDS011;3469;47.060;15.460;2022-12-18T01:25:08;29.05;;;13.43;;
6860;SDS011;3469;47.060;15.460;2022-12-18T01:27:38;24.88;;;13.52;;
6860;SDS011;3469;47.060;15.460;2022-12-18T01:30:07;20.48;;;13.30;;
6860;SDS011;3469;47.060;15.460;2022-12-18T01:32:35;23.95;;;12.48;;
6860;SDS011;3469;47.060;15.460;2022-12-18T01:35:04;23.73;;;14.30;;
6860;SDS011;3469;47.060;15.460;2022-12-18T01:37:33;28.42;;;15.63;;
6860;SDS011;3469;47.060;15.460;2022-12-18T01:40:02;26.20;;;14.82;;
6860;SDS011;3469;47.060;15.460;2022-12-18T01:42:32;28.23;;;15.95;;
6860;SDS011;3469;47.060;15.460;2022-12-18T01:45:05;25.20;;;15.70;;
6860;SDS011;3469;47.060;15.460;2022-12-18T01:47:37;28.63;;;15.77;;
6860;SDS011;3469;47.060;15.460;2022-12-18T01:50:09;25.38;;;13.48;;
6860;SDS011;3469;47.060;15.460;2022-12-18T01:52:40;25.20;;;13.60;;
6860;SDS011;3469;47.060;15.460;2022-12-18T01:55:10;23.67;;;13.15;;
6860;SDS011;3469;47.060;15.460;2022-12-18T01:57:40;23.95;;;13.55;;
6860;SDS011;3469;47.060;15.460;2022-12-18T02:00:11;22.83;;;12.55;;
6860;SDS011;3469;47.060;15.460;2022-12-18T02:02:42;19.63;;;12.32;;
6860;SDS011;3469;47.060;15.460;2022-12-18T02:05:12;28.77;;;14.68;;
6860;SDS011;3469;47.060;15.460;2022-12-18T02:07:45;20.80;;;12.98;;
6860;SDS011;3469;47.060;15.460;2022-12-18T02:10:23;23.25;;;13.35;;
6860;SDS011;3469;47.060;15.460;2022-12-18T02:12:57;24.88;;;12.23;;
6860;SDS011;3469;47.060;15.460;2022-12-18T02:15:32;23.05;;;12.60;;
6860;SDS011;3469;47.060;15.460;2022-12-18T02:18:07;22.73;;;14.27;;
6860;SDS011;3469;47.060;15.460;2022-12-18T02:20:38;24.80;;;12.82;;
6860;SDS011;3469;47.060;15.460;2022-12-18T02:23:13;23.02;;;14.30;;
6860;SDS011;3469;47.060;15.460;2022-12-18T02:25:58;22.92;;;12.88;;
6860;SDS011;3469;47.060;15.460;2022-12-18T02:28:34;21.15;;;12.40;;
6860;SDS011;3469;47.060;15.460;2022-12-18T02:31:06;21.17;;;12.43;;
6860;SDS011;3469;47.060;15.460;2022-12-18T02:33:39;22.13;;;13.63;;
6860;SDS011;3469;47.060;15.460;2022-12-18T02:36:08;20.35;;;12.77;;
6860;SDS011;3469;47.060;15.460;2022-12-18T02:38:37;22.88;;;12.70;;
6860;SDS011;3469;47.060;15.460;2022-12-18T02:41:12;23.45;;;12.55;;
6860;SDS011;3469;47.060;15.460;2022-12-18T02:43:46;25.25;;;12.95;;
6860;SDS011;3469;47.060;15.460;2022-12-18T02:46:28;27.83;;;14.30;;
6860;SDS011;3469;47.060;15.460;2022-12-18T02:49:11;23.67;;;13.98;;
6860;SDS011;3469;47.060;15.460;2022-12-18T02:51:47;24.55;;;13.30;;
6860;SDS011;3469;47.060;15.460;2022-12-18T02:54:21;24.42;;;13.85;;
6860;SDS011;3469;47.060;15.460;2022-12-18T02:56:56;24.85;;;13.32;;
6860;SDS011;3469;47.060;15.460;2022-12-18T02:59:29;28.00;;;13.55;;
6860;SDS011;3469;47.060;15.460;2022-12-18T03:02:01;19.33;;;10.73;;
6860;SDS011;3469;47.060;15.460;2022-12-18T03:04:34;23.83;;;12.68;;
6860;SDS011;3469;47.060;15.460;2022-12-18T03:07:08;22.25;;;13.88;;
6860;SDS011;3469;47.060;15.460;2022-12-18T03:09:38;27.67;;;13.48;;
6860;SDS011;3469;47.060;15.460;2022-12-18T03:12:12;21.08;;;12.65;;
6860;SDS011;3469;47.060;15.460;2022-12-18T03:14:56;21.50;;;13.45;;
6860;SDS011;3469;47.060;15.460;2022-12-18T03:17:28;20.95;;;12.63;;
6860;SDS011;3469;47.060;15.460;2022-12-18T03:20:03;28.67;;;13.07;;
6860;SDS011;3469;47.060;15.460;2022-12-18T03:22:34;23.00;;;11.95;;
6860;SDS011;3469;47.060;15.460;2022-12-18T03:25:04;25.85;;;13.48;;
6860;SDS011;3469;47.060;15.460;2022-12-18T03:27:38;19.40;;;12.05;;
6860;SDS011;3469;47.060;15.460;2022-12-18T03:30:13;24.35;;;12.50;;
6860;SDS011;3469;47.060;15.460;2022-12-18T03:32:44;23.40;;;11.88;;
6860;SDS011;3469;47.060;15.460;2022-12-18T03:35:29;18.55;;;11.88;;
6860;SDS011;3469;47.060;15.460;2022-12-18T03:37:59;19.35;;;11.90;;
6860;SDS011;3469;47.060;15.460;2022-12-18T03:40:29;17.42;;;10.18;;
6860;SDS011;3469;47.060;15.460;2022-12-18T03:43:08;19.90;;;11.27;;
6860;SDS011;3469;47.060;15.460;2022-12-18T03:45:41;22.42;;;10.82;;
6860;SDS011;3469;47.060;15.460;2022-12-18T03:48:14;23.15;;;11.93;;
6860;SDS011;3469;47.060;15.460;2022-12-18T03:50:47;18.27;;;10.70;;
6860;SDS011;3469;47.060;15.460;2022-12-18T03:53:22;24.13;;;10.65;;
6860;SDS011;3469;47.060;15.460;2022-12-18T03:55:55;18.95;;;10.73;;
6860;SDS011;3469;47.060;15.460;2022-12-18T03:58:28;19.65;;;12.13;;
6860;SDS011;3469;47.060;15.460;2022-12-18T04:01:23;18.58;;;11.43;;
6860;SDS011;3469;47.060;15.460;2022-12-18T04:03:54;23.05;;;10.95;;
6860;SDS011;3469;47.060;15.460;2022-12-18T04:06:23;20.35;;;9.93;;
6860;SDS011;3469;47.060;15.460;2022-12-18T04:08:51;21.23;;;11.95;;
6860;SDS011;3469;47.060;15.460;2022-12-18T04:11:23;17.02;;;10.38;;
6860;SDS011;3469;47.060;15.460;2022-12-18T04:13:56;18.85;;;11.23;;
6860;SDS011;3469;47.060;15.460;2022-12-18T04:16:26;17.77;;;10.45;;
6860;SDS011;3469;47.060;15.460;2022-12-18T04:18:58;16.88;;;10.18;;
6860;SDS011;3469;47.060;15.460;2022-12-18T04:21:31;17.95;;;10.63;;
6860;SDS011;3469;47.060;15.460;2022-12-18T04:23:59;18.67;;;11.60;;
6860;SDS011;3469;47.060;15.460;2022-12-18T04:26:29;18.75;;;11.18;;
6860;SDS011;3469;47.060;15.460;2022-12-18T04:29:17;20.38;;;11.13;;
6860;SDS011;3469;47.060;15.460;2022-12-18T04:31:46;17.65;;;10.18;;
6860;SDS011;3469;47.060;15.460;2022-12-18T04:34:15;22.23;;;12.60;;
6860;SDS011;3469;47.060;15.460;2022-12-18T04:36:48;101.15;;;46.95;;
6860;SDS011;3469;47.060;15.460;2022-12-18T04:39:17;138.45;;;65.57;;
6860;SDS011;3469;47.060;15.460;2022-12-18T04:41:48;62.05;;;32.95;;
6860;SDS011;3469;47.060;15.460;2022-12-18T04:44:18;26.73;;;14.05;;
6860;SDS011;3469;47.060;15.460;2022-12-18T04:46:46;21.00;;;12.40;;
6860;SDS011;3469;47.060;15.460;2022-12-18T04:49:15;18.88;;;11.02;;
6860;SDS011;3469;47.060;15.460;2022-12-18T04:51:43;19.63;;;11.57;;
6860;SDS011;3469;47.060;15.460;2022-12-18T04:54:11;21.73;;;12.30;;
6860;SDS011;3469;47.060;15.460;2022-12-18T04:56:40;20.67;;;10.50;;
6860;SDS011;3469;47.060;15.460;2022-12-18T04:59:08;21.33;;;11.57;;
6860;SDS011;3469;47.060;15.460;2022-12-18T05:01:38;21.50;;;12.55;;
6860;SDS011;3469;47.060;15.460;2022-12-18T05:04:07;20.33;;;11.75;;
6860;SDS011;3469;47.060;15.460;2022-12-18T05:06:36;19.67;;;11.70;;
6860;SDS011;3469;47.060;15.460;2022-12-18T05:09:04;24.58;;;14.93;;
6860;SDS011;3469;47.060;15.460;2022-12-18T05:11:32;28.42;;;14.80;;
6860;SDS011;3469;47.060;15.460;2022-12-18T05:14:00;23.58;;;14.65;;
6860;SDS011;3469;47.060;15.460;2022-12-18T05:16:29;23.10;;;13.52;;
6860;SDS011;3469;47.060;15.460;2022-12-18T05:18:59;21.90;;;14.50;;
6860;SDS011;3469;47.060;15.460;2022-12-18T05:21:27;25.02;;;14.95;;
6860;SDS011;3469;47.060;15.460;2022-12-18T05:23:55;22.08;;;13.30;;
6860;SDS011;3469;47.060;15.460;2022-12-18T05:26:24;25.27;;;16.17;;
6860;SDS011;3469;47.060;15.460;2022-12-18T05:28:52;21.63;;;12.57;;
6860;SDS011;3469;47.060;15.460;2022-12-18T05:31:20;29.35;;;15.40;;
6860;SDS011;3469;47.060;15.460;2022-12-18T05:33:49;35.03;;;16.83;;
6860;SDS011;3469;47.060;15.460;2022-12-18T05:36:18;30.48;;;16.65;;
6860;SDS011;3469;47.060;15.460;2022-12-18T05:38:47;25.08;;;14.80;;
6860;SDS011;3469;47.060;15.460;2022-12-18T05:41:15;27.67;;;13.70;;
6860;SDS011;3469;47.060;15.460;2022-12-18T05:43:43;34.00;;;14.15;;
6860;SDS011;3469;47.060;15.460;2022-12-18T05:46:12;23.55;;;14.25;;
6860;SDS011;3469;47.060;15.460;2022-12-18T05:48:42;30.15;;;15.68;;
6860;SDS011;3469;47.060;15.460;2022-12-18T05:51:12;27.08;;;13.77;;
6860;SDS011;3469;47.060;15.460;2022-12-18T05:53:43;27.33;;;14.45;;
6860;SDS011;3469;47.060;15.460;2022-12-18T05:56:13;28.75;;;13.93;;
6860;SDS011;3469;47.060;15.460;2022-12-18T05:58:42;28.60;;;15.32;;
6860;SDS011;3469;47.060;15.460;2022-12-18T06:01:11;24.58;;;14.40;;
6860;SDS011;3469;47.060;15.460;2022-12-18T06:03:42;25.60;;;14.95;;
6860;SDS011;3469;47.060;15.460;2022-12-18T06:06:15;24.00;;;14.27;;
6860;SDS011;3469;47.060;15.460;2022-12-18T06:08:46;28.00;;;14.48;;
6860;SDS011;3469;47.060;15.460;2022-12-18T06:11:16;21.35;;;13.90;;
6860;SDS011;3469;47.060;15.460;2022-12-18T06:13:49;32.88;;;16.73;;
6860;SDS011;3469;47.060;15.460;2022-12-18T06:16:24;32.00;;;17.48;;
6860;SDS011;3469;47.060;15.460;2022-12-18T06:18:52;31.67;;;15.73;;
6860;SDS011;3469;47.060;15.460;2022-12-18T06:21:21;28.23;;;16.27;;
6860;SDS011;3469;47.060;15.460;2022-12-18T06:23:51;25.85;;;15.05;;
6860;SDS011;3469;47.060;15.460;2022-12-18T06:26:19;23.45;;;14.07;;
6860;SDS011;3469;47.060;15.460;2022-12-18T06:28:53;23.80;;;14.73;;
6860;SDS011;3469;47.060;15.460;2022-12-18T06:31:22;25.02;;;15.27;;
6860;SDS011;3469;47.060;15.460;2022-12-18T06:33:50;24.02;;;15.93;;
6860;SDS011;3469;47.060;15.460;2022-12-18T06:36:19;31.42;;;16.10;;
6860;SDS011;3469;47.060;15.460;2022-12-18T06:38:47;28.10;;;15.18;;
6860;SDS011;3469;47.060;15.460;2022-12-18T06:41:18;25.33;;;15.23;;
6860;SDS011;3469;47.060;15.460;2022-12-18T06:43:48;23.10;;;14.93;;
6860;SDS011;3469;47.060;15.460;2022-12-18T06:46:25;28.98;;;16.08;;
6860;SDS011;3469;47.060;15.460;2022-12-18T06:48:53;27.90;;;15.90;;
6860;SDS011;3469;47.060;15.460;2022-12-18T06:51:22;27.52;;;15.25;;
6860;SDS011;3469;47.060;15.460;2022-12-18T06:53:53;21.42;;;14.32;;
6860;SDS011;3469;47.060;15.460;2022-12-18T06:56:23;24.42;;;15.15;;
6860;SDS011;3469;47.060;15.460;2022-12-18T06:58:52;28.73;;;14.73;;
6860;SDS011;3469;47.060;15.460;2022-12-18T07:01:21;23.92;;;14.20;;
6860;SDS011;3469;47.060;15.460;2022-12-18T07:03:51;22.35;;;11.82;;
6860;SDS011;3469;47.060;15.460;2022-12-18T07:06:23;26.90;;;14.00;;
6860;SDS011;3469;47.060;15.460;2022-12-18T07:08:53;26.13;;;12.05;;
6860;SDS011;3469;47.060;15.460;2022-12-18T07:11:24;13.10;;;9.65;;
6860;SDS011;3469;47.060;15.460;2022-12-18T07:13:53;21.80;;;11.13;;
6860;SDS011;3469;47.060;15.460;2022-12-18T07:16:22;18.35;;;10.60;;
6860;SDS011;3469;47.060;15.460;2022-12-18T07:18:51;18.20;;;10.93;;
6860;SDS011;3469;47.060;15.460;2022-12-18T07:21:22;16.15;;;10.48;;
6860;SDS011;3469;47.060;15.460;2022-12-18T07:23:52;12.65;;;8.50;;
6860;SDS011;3469;47.060;15.460;2022-12-18T07:26:26;17.27;;;9.65;;
6860;SDS011;3469;47.060;15.460;2022-12-18T07:28:55;14.15;;;8.43;;
6860;SDS011;3469;47.060;15.460;2022-12-18T07:31:24;17.80;;;8.38;;
6860;SDS011;3469;47.060;15.460;2022-12-18T07:33:53;13.02;;;7.60;;
6860;SDS011;3469;47.060;15.460;2022-12-18T07:36:22;12.80;;;6.47;;
6860;SDS011;3469;47.060;15.460;2022-12-18T07:38:51;10.27;;;7.00;;
6860;SDS011;3469;47.060;15.460;2022-12-18T07:41:19;16.38;;;8.35;;
6860;SDS011;3469;47.060;15.460;2022-12-18T07:43:49;16.67;;;10.20;;
6860;SDS011;3469;47.060;15.460;2022-12-18T07:46:19;19.08;;;9.27;;
6860;SDS011;3469;47.060;15.460;2022-12-18T07:48:48;19.50;;;9.93;;
6860;SDS011;3469;47.060;15.460;2022-12-18T07:51:16;17.85;;;9.32;;
6860;SDS011;3469;47.060;15.460;2022-12-18T07:53:45;15.55;;;10.30;;
6860;SDS011;3469;47.060;15.460;2022-12-18T07:56:17;14.48;;;9.25;;
6860;SDS011;3469;47.060;15.460;2022-12-18T07:58:57;15.00;;;10.65;;
6860;SDS011;3469;47.060;15.460;2022-12-18T08:01:26;15.38;;;11.02;;
6860;SDS011;3469;47.060;15.460;2022-12-18T08:03:57;13.80;;;9.65;;
6860;SDS011;3469;47.060;15.460;2022-12-18T08:06:26;16.23;;;11.23;;
6860;SDS011;3469;47.060;15.460;2022-12-18T08:08:55;21.40;;;12.00;;
6860;SDS011;3469;47.060;15.460;2022-12-18T08:11:25;13.57;;;9.93;;
6860;SDS011;3469;47.060;15.460;2022-12-18T08:13:54;17.55;;;11.35;;
6860;SDS011;3469;47.060;15.460;2022-12-18T08:16:25;19.75;;;11.48;;
6860;SDS011;3469;47.060;15.460;2022-12-18T08:18:53;16.15;;;10.30;;
6860;SDS011;3469;47.060;15.460;2022-12-18T08:21:23;13.70;;;9.00;;
6860;SDS011;3469;47.060;15.460;2022-12-18T08:23:53;13.98;;;10.20;;
6860;SDS011;3469;47.060;15.460;2022-12-18T08:26:24;24.10;;;11.52;;
6860;SDS011;3469;47.060;15.460;2022-12-18T08:28:57;16.85;;;10.63;;
6860;SDS011;3469;47.060;15.460;2022-12-18T08:31:28;13.48;;;8.50;;
6860;SDS011;3469;47.060;15.460;2022-12-18T08:33:57;19.55;;;11.05;;
6860;SDS011;3469;47.060;15.460;2022-12-18T08:36:26;14.38;;;8.27;;
6860;SDS011;3469;47.060;15.460;2022-12-18T08:38:56;13.30;;;8.70;;
6860;SDS011;3469;47.060;15.460;2022-12-18T08:41:26;14.45;;;8.60;;
6860;SDS011;3469;47.060;15.460;2022-12-18T08:43:54;14.13;;;8.25;;
6860;SDS011;3469;47.060;15.460;2022-12-18T08:46:42;11.57;;;6.43;;
6860;SDS011;3469;47.060;15.460;2022-12-18T08:49:11;11.13;;;6.90;;
6860;SDS011;3469;47.060;15.460;2022-12-18T08:51:40;25.40;;;10.60;;
6860;SDS011;3469;47.060;15.460;2022-12-18T08:59:40;21.55;;;14.20;;
6860;SDS011;3469;47.060;15.460;2022-12-18T09:01:00;24.02;;;14.07;;
6860;SDS011;3469;47.060;15.460;2022-12-18T09:03:32;21.33;;;14.23;;
6860;SDS011;3469;47.060;15.460;2022-12-18T09:06:02;15.80;;;10.15;;
6860;SDS011;3469;47.060;15.460;2022-12-18T09:08:33;15.25;;;10.15;;
6860;SDS011;3469;47.060;15.460;2022-12-18T09:11:03;12.65;;;9.05;;
6860;SDS011;3469;47.060;15.460;2022-12-18T09:13:33;14.57;;;9.93;;
6860;SDS011;3469;47.060;15.460;2022-12-18T09:16:02;13.77;;;9.90;;
6860;SDS011;3469;47.060;15.460;2022-12-18T09:18:32;11.07;;;8.18;;
6860;SDS011;3469;47.060;15.460;2022-12-18T09:21:08;11.17;;;8.20;;
6860;SDS011;3469;47.060;15.460;2022-12-18T09:23:37;9.85;;;7.95;;
6860;SDS011;3469;47.060;15.460;2022-12-18T09:26:05;10.90;;;8.50;;
6860;SDS011;3469;47.060;15.460;2022-12-18T09:28:34;16.80;;;9.50;;
6860;SDS011;3469;47.060;15.460;2022-12-18T09:31:05;13.73;;;9.00;;
6860;SDS011;3469;47.060;15.460;2022-12-18T09:33:37;11.83;;;8.80;;
6860;SDS011;3469;47.060;15.460;2022-12-18T09:36:09;13.43;;;10.03;;
6860;SDS011;3469;47.060;15.460;2022-12-18T09:38:38;13.97;;;9.70;;
6860;SDS011;3469;47.060;15.460;2022-12-18T09:41:14;13.10;;;9.80;;
6860;SDS011;3469;47.060;15.460;2022-12-18T09:43:47;11.30;;;8.47;;
6860;SDS011;3469;47.060;15.460;2022-12-18T09:46:19;11.93;;;9.00;;
6860;SDS011;3469;47.060;15.460;2022-12-18T09:48:56;13.67;;;9.90;;
6860;SDS011;3469;47.060;15.460;2022-12-18T09:51:29;13.57;;;10.90;;
6860;SDS011;3469;47.060;15.460;2022-12-18T09:54:03;14.10;;;10.20;;
6860;SDS011;3469;47.060;15.460;2022-12-18T09:56:34;12.33;;;9.20;;
6860;SDS011;3469;47.060;15.460;2022-12-18T09:59:04;16.53;;;13.00;;
6860;SDS011;3469;47.060;15.460;2022-12-18T10:01:33;16.20;;;11.90;;
6860;SDS011;3469;47.060;15.460;2022-12-18T10:04:12;21.47;;;12.77;;
6860;SDS011;3469;47.060;15.460;2022-12-18T10:06:42;22.03;;;14.40;;
6860;SDS011;3469;47.060;15.460;2022-12-18T10:09:16;18.73;;;12.73;;
6860;SDS011;3469;47.060;15.460;2022-12-18T10:11:52;18.13;;;13.23;;
6860;SDS011;3469;47.060;15.460;2022-12-18T10:14:26;20.03;;;14.53;;
6860;SDS011;3469;47.060;15.460;2022-12-18T10:17:00;23.20;;;15.37;;
6860;SDS011;3469;47.060;15.460;2022-12-18T10:19:42;27.37;;;15.37;;
6860;SDS011;3469;47.060;15.460;2022-12-18T10:22:22;21.13;;;14.93;;
6860;SDS011;3469;47.060;15.460;2022-12-18T10:24:59;21.40;;;14.47;;
6860;SDS011;3469;47.060;15.460;2022-12-18T10:27:33;21.77;;;13.83;;
6860;SDS011;3469;47.060;15.460;2022-12-18T10:30:04;20.57;;;16.00;;
6860;SDS011;3469;47.060;15.460;2022-12-18T10:32:35;23.33;;;16.53;;
6860;SDS011;3469;47.060;15.460;2022-12-18T10:35:09;21.47;;;14.87;;
6860;SDS011;3469;47.060;15.460;2022-12-18T10:38:04;21.70;;;14.23;;
6860;SDS011;3469;47.060;15.460;2022-12-18T10:40:47;23.10;;;14.53;;
6860;SDS011;3469;47.060;15.460;2022-12-18T10:43:19;23.90;;;17.20;;
6860;SDS011;3469;47.060;15.460;2022-12-18T10:45:57;25.10;;;17.47;;
6860;SDS011;3469;47.060;15.460;2022-12-18T10:48:33;27.37;;;16.10;;
6860;SDS011;3469;47.060;15.460;2022-12-18T10:51:06;25.57;;;15.90;;
6860;SDS011;3469;47.060;15.460;2022-12-18T10:53:39;22.33;;;16.33;;
6860;SDS011;3469;47.060;15.460;2022-12-18T10:56:10;24.50;;;15.77;;
6860;SDS011;3469;47.060;15.460;2022-12-18T10:58:39;23.00;;;16.57;;
6860;SDS011;3469;47.060;15.460;2022-12-18T11:01:09;21.73;;;14.80;;
6860;SDS011;3469;47.060;15.460;2022-12-18T11:03:40;23.33;;;15.85;;
6860;SDS011;3469;47.060;15.460;2022-12-18T11:06:12;25.10;;;16.60;;
6860;SDS011;3469;47.060;15.460;2022-12-18T11:08:44;25.05;;;17.48;;
6860;SDS011;3469;47.060;15.460;2022-12-18T11:11:24;25.57;;;17.60;;
6860;SDS011;3469;47.060;15.460;2022-12-18T11:13:57;26.27;;;15.87;;
6860;SDS011;3469;47.060;15.460;2022-12-18T11:16:29;24.17;;;16.00;;
6860;SDS011;3469;47.060;15.460;2022-12-18T11:19:19;27.17;;;17.20;;
6860;SDS011;3469;47.060;15.460;2022-12-18T11:21:52;21.70;;;15.27;;
6860;SDS011;3469;47.060;15.460;2022-12-18T11:24:22;26.63;;;16.07;;
6860;SDS011;3469;47.060;15.460;2022-12-18T11:26:54;32.00;;;18.40;;
6860;SDS011;3469;47.060;15.460;2022-12-18T11:29:28;28.45;;;18.25;;
6860;SDS011;3469;47.060;15.460;2022-12-18T11:32:21;29.80;;;18.42;;
6860;SDS011;3469;47.060;15.460;2022-12-18T11:35:03;28.50;;;19.27;;
6860;SDS011;3469;47.060;15.460;2022-12-18T11:37:41;36.60;;;21.67;;
6860;SDS011;3469;47.060;15.460;2022-12-18T11:40:11;30.52;;;21.55;;
6860;SDS011;3469;47.060;15.460;2022-12-18T11:42:44;36.22;;;21.92;;
6860;SDS011;3469;47.060;15.460;2022-12-18T11:45:23;32.28;;;19.75;;
6860;SDS011;3469;47.060;15.460;2022-12-18T11:47:56;35.47;;;20.90;;
6860;SDS011;3469;47.060;15.460;2022-12-18T11:50:29;34.22;;;21.52;;
6860;SDS011;3469;47.060;15.460;2022-12-18T11:53:00;32.25;;;20.75;;
6860;SDS011;3469;47.060;15.460;2022-12-18T11:55:35;32.47;;;18.40;;
6860;SDS011;3469;47.060;15.460;2022-12-18T11:58:08;37.45;;;23.38;;
6860;SDS011;3469;47.060;15.460;2022-12-18T12:00:42;31.67;;;17.90;;
6860;SDS011;3469;47.060;15.460;2022-12-18T12:03:27;32.28;;;21.55;;
6860;SDS011;3469;47.060;15.460;2022-12-18T12:06:20;32.38;;;18.50;;
6860;SDS011;3469;47.060;15.460;2022-12-18T12:09:00;33.65;;;18.10;;
6860;SDS011;3469;47.060;15.460;2022-12-18T12:11:37;27.65;;;15.77;;
6860;SDS011;3469;47.060;15.460;2022-12-18T12:14:15;31.65;;;17.40;;
6860;SDS011;3469;47.060;15.460;2022-12-18T12:16:50;37.20;;;19.50;;
6860;SDS011;3469;47.060;15.460;2022-12-18T12:19:26;32.25;;;18.33;;
6860;SDS011;3469;47.060;15.460;2022-12-18T12:22:03;32.90;;;19.80;;
6860;SDS011;3469;47.060;15.460;2022-12-18T12:24:43;40.45;;;19.77;;
6860;SDS011;3469;47.060;15.460;2022-12-18T12:27:20;35.92;;;19.08;;
6860;SDS011;3469;47.060;15.460;2022-12-18T12:29:58;33.00;;;18.15;;
6860;SDS011;3469;47.060;15.460;2022-12-18T12:32:35;43.70;;;23.08;;
6860;SDS011;3469;47.060;15.460;2022-12-18T12:35:18;36.97;;;19.88;;
6860;SDS011;3469;47.060;15.460;2022-12-18T12:38:05;35.08;;;20.70;;
6860;SDS011;3469;47.060;15.460;2022-12-18T12:40:43;34.28;;;20.48;;
6860;SDS011;3469;47.060;15.460;2022-12-18T12:43:25;31.45;;;18.40;;
6860;SDS011;3469;47.060;15.460;2022-12-18T12:45:57;36.42;;;20.20;;
6860;SDS011;3469;47.060;15.460;2022-12-18T12:48:31;39.38;;;20.77;;
6860;SDS011;3469;47.060;15.460;2022-12-18T12:51:06;34.58;;;18.95;;
6860;SDS011;3469;47.060;15.460;2022-12-18T12:53:39;32.85;;;14.75;;
6860;SDS011;3469;47.060;15.460;2022-12-18T12:56:11;36.70;;;18.00;;
6860;SDS011;3469;47.060;15.460;2022-12-18T12:58:44;34.90;;;17.75;;
6860;SDS011;3469;47.060;15.460;2022-12-18T13:01:20;35.60;;;20.45;;
6860;SDS011;3469;47.060;15.460;2022-12-18T13:03:56;38.60;;;19.27;;
6860;SDS011;3469;47.060;15.460;2022-12-18T13:06:34;39.42;;;19.58;;
6860;SDS011;3469;47.060;15.460;2022-12-18T13:09:10;37.58;;;19.13;;
6860;SDS011;3469;47.060;15.460;2022-12-18T13:11:41;35.90;;;19.13;;
6860;SDS011;3469;47.060;15.460;2022-12-18T13:14:30;41.13;;;22.17;;
6860;SDS011;3469;47.060;15.460;2022-12-18T13:17:16;35.42;;;16.85;;
6860;SDS011;3469;47.060;15.460;2022-12-18T13:22:44;36.25;;;20.45;;
6860;SDS011;3469;47.060;15.460;2022-12-18T13:25:27;37.45;;;20.77;;
6860;SDS011;3469;47.060;15.460;2022-12-18T13:28:06;35.47;;;18.88;;
6860;SDS011;3469;47.060;15.460;2022-12-18T13:30:41;39.17;;;21.60;;
6860;SDS011;3469;47.060;15.460;2022-12-18T13:36:27;39.00;;;19.95;;
6860;SDS011;3469;47.060;15.460;2022-12-18T13:45:47;44.10;;;23.08;;
6860;SDS011;3469;47.060;15.460;2022-12-18T13:48:19;14.57;;;6.57;;
6860;SDS011;3469;47.060;15.460;2022-12-18T13:50:55;37.97;;;20.92;;
6860;SDS011;3469;47.060;15.460;2022-12-18T13:53:26;36.15;;;19.58;;
6860;SDS011;3469;47.060;15.460;2022-12-18T13:55:57;44.17;;;22.73;;
6860;SDS011;3469;47.060;15.460;2022-12-18T13:58:27;42.13;;;23.10;;
6860;SDS011;3469;47.060;15.460;2022-12-18T14:00:58;45.13;;;22.75;;
6860;SDS011;3469;47.060;15.460;2022-12-18T14:03:29;37.45;;;20.65;;
6860;SDS011;3469;47.060;15.460;2022-12-18T14:06:02;40.60;;;20.20;;
6860;SDS011;3469;47.060;15.460;2022-12-18T14:08:44;45.60;;;22.23;;
6860;SDS011;3469;47.060;15.460;2022-12-18T14:11:18;42.35;;;20.75;;
6860;SDS011;3469;47.060;15.460;2022-12-18T14:13:51;48.05;;;23.38;;
6860;SDS011;3469;47.060;15.460;2022-12-18T14:16:21;38.03;;;20.42;;
6860;SDS011;3469;47.060;15.460;2022-12-18T14:18:51;40.17;;;22.07;;
6860;SDS011;3469;47.060;15.460;2022-12-18T14:21:28;38.65;;;20.70;;
6860;SDS011;3469;47.060;15.460;2022-12-18T14:24:11;45.53;;;23.60;;
6860;SDS011;3469;47.060;15.460;2022-12-18T14:26:45;47.95;;;24.83;;
6860;SDS011;3469;47.060;15.460;2022-12-18T14:29:23;41.15;;;22.67;;
6860;SDS011;3469;47.060;15.460;2022-12-18T14:32:05;39.40;;;21.60;;
6860;SDS011;3469;47.060;15.460;2022-12-18T14:34:45;42.88;;;20.52;;
6860;SDS011;3469;47.060;15.460;2022-12-18T14:37:14;39.33;;;21.08;;
6860;SDS011;3469;47.060;15.460;2022-12-18T14:39:54;41.83;;;22.02;;
6860;SDS011;3469;47.060;15.460;2022-12-18T14:42:24;41.40;;;21.83;;
6860;SDS011;3469;47.060;15.460;2022-12-18T14:48:13;40.33;;;19.27;;
6860;SDS011;3469;47.060;15.460;2022-12-18T14:50:57;42.28;;;20.80;;
6860;SDS011;3469;47.060;15.460;2022-12-18T14:53:32;42.17;;;19.77;;
6860;SDS011;3469;47.060;15.460;2022-12-18T14:56:03;45.25;;;20.10;;
6860;SDS011;3469;47.060;15.460;2022-12-18T14:58:48;41.25;;;21.42;;
6860;SDS011;3469;47.060;15.460;2022-12-18T15:01:24;42.33;;;20.88;;
6860;SDS011;3469;47.060;15.460;2022-12-18T15:04:18;37.38;;;20.30;;
6860;SDS011;3469;47.060;15.460;2022-12-18T15:07:08;39.88;;;22.52;;
6860;SDS011;3469;47.060;15.460;2022-12-18T15:09:41;40.28;;;20.85;;
6860;SDS011;3469;47.060;15.460;2022-12-18T15:12:24;40.88;;;20.83;;
6860;SDS011;3469;47.060;15.460;2022-12-18T15:14:57;35.40;;;15.95;;
6860;SDS011;3469;47.060;15.460;2022-12-18T15:17:29;27.50;;;14.27;;
6860;SDS011;3469;47.060;15.460;2022-12-18T15:20:01;43.97;;;20.00;;
6860;SDS011;3469;47.060;15.460;2022-12-18T15:22:33;41.20;;;18.83;;
6860;SDS011;3469;47.060;15.460;2022-12-18T15:25:19;41.30;;;19.98;;
6860;SDS011;3469;47.060;15.460;2022-12-18T15:27:54;40.53;;;20.38;;